Monday, September 24, 2018, 9:33 PM GMT
Back to Local

CZBF, Bathurst Airport Aviation Weather Reporting Station

Location: , , Canada Lat: 47.633
Local Time: 9:33 PM GMT (21:33 GMT) Lon: -65.75
Time Zone: GMT Elev: 193 ft

Show me the last for .
Show Coded

Time T Td Feel RH Dir Speed Gust Alt SLP Vis Weather Sky Remarks
2018-09-24 21:00 54 19 - 25 300° 6 - 30.58 30.59 9 CLR None
2018-09-24 20:00 55 21 - 26 300° 9 - 30.57 30.58 9 CLR None
2018-09-24 19:00 54 19 - 25 310° 10 20 30.57 30.58 9 CLR None
2018-09-24 18:00 54 23 - 30 340° 7 17 30.58 30.59 9 CLR None
2018-09-24 17:00 52 23 - 32 Variable 10 - 30.58 30.60 9 CLR None
2018-09-24 16:00 48 25 42 39 Variable 7 17 30.59 30.60 9 CLR None
2018-09-24 15:00 46 27 43 45 310° 7 - 30.60 30.61 9 CLR None
2018-09-24 14:00 45 27 41 48 Variable 7 - 30.60 30.61 9 CLR None
2018-09-24 13:00 41 27 32 56 320° 7 18 30.60 30.61 9 CLR None
2018-09-24 12:00 39 27 30 60 320° 8 18 30.57 30.58 9 CLR None
2018-09-24 11:00 36 27 29 69 300° 8 - 30.54 30.55 9 CLR Pressure rising rapidly
2018-09-24 10:00 34 25 23 69 300° 10 18 30.50 30.51 9 CLR None
2018-09-24 09:00 36 25 29 64 290° 8 - 30.47 30.48 9 CLR None
2018-09-24 08:00 36 23 31 59 300° 6 - 30.45 30.46 9 CLR None
2018-09-24 07:00 32 23 25 68 280° 8 - 30.43 30.45 9 CLR None
2018-09-24 06:00 32 25 26 74 270° 6 - 30.41 30.43 9 CLR None
2018-09-24 05:00 34 23 30 64 280° 5 - 30.41 30.42 9 CLR None
2018-09-24 04:00 34 23 28 64 290° 7 - 30.38 30.40 9 CLR None
2018-09-24 03:00 36 23 30 59 270° 7 - 30.37 30.38 9 CLR None
2018-09-24 02:00 37 23 32 55 280° 7 - 30.35 30.36 9 CLR None
2018-09-24 01:00 37 23 32 55 280° 7 - 30.33 30.34 9 CLR None
2018-09-24 00:00 39 25 35 55 300° 6 - 30.31 30.32 9 CLR None
2018-09-23 23:00 45 25 41 45 310° 6 - 30.26 30.27 9 BKN100 None
2018-09-23 22:00 46 30 44 52 290° 6 - 30.23 30.24 9 OVC080 None

Support USWX by starting your Amazon purchase here.